sensor_id;sensor_type;location;lat;lon;timestamp;temperature;humidity
14585;DHT22;7379;51.506;11.876;2023-02-15T00:01:29;5.60;76.10
14585;DHT22;7379;51.506;11.876;2023-02-15T00:03:57;5.60;76.00
14585;DHT22;7379;51.506;11.876;2023-02-15T00:06:24;5.60;76.00
14585;DHT22;7379;51.506;11.876;2023-02-15T00:08:51;5.60;76.00
14585;DHT22;7379;51.506;11.876;2023-02-15T00:11:18;5.60;76.00
14585;DHT22;7379;51.506;11.876;2023-02-15T00:14:06;5.60;76.00
14585;DHT22;7379;51.506;11.876;2023-02-15T00:16:33;5.60;76.00
14585;DHT22;7379;51.506;11.876;2023-02-15T00:19:01;5.50;75.80
14585;DHT22;7379;51.506;11.876;2023-02-15T00:21:29;5.50;75.80
14585;DHT22;7379;51.506;11.876;2023-02-15T00:23:56;5.50;75.80
14585;DHT22;7379;51.506;11.876;2023-02-15T00:26:24;5.50;75.80
14585;DHT22;7379;51.506;11.876;2023-02-15T00:28:51;5.50;75.80
14585;DHT22;7379;51.506;11.876;2023-02-15T00:31:18;5.50;75.80
14585;DHT22;7379;51.506;11.876;2023-02-15T00:33:45;5.50;75.80
14585;DHT22;7379;51.506;11.876;2023-02-15T00:36:13;5.50;76.60
14585;DHT22;7379;51.506;11.876;2023-02-15T00:38:40;5.40;75.80
14585;DHT22;7379;51.506;11.876;2023-02-15T00:41:08;5.40;75.80
14585;DHT22;7379;51.506;11.876;2023-02-15T00:43:36;5.40;75.70
14585;DHT22;7379;51.506;11.876;2023-02-15T00:46:04;5.40;75.60
14585;DHT22;7379;51.506;11.876;2023-02-15T00:48:31;5.40;75.70
14585;DHT22;7379;51.506;11.876;2023-02-15T00:50:59;5.40;75.70
14585;DHT22;7379;51.506;11.876;2023-02-15T00:53:28;5.40;75.80
14585;DHT22;7379;51.506;11.876;2023-02-15T00:55:55;5.40;75.80
14585;DHT22;7379;51.506;11.876;2023-02-15T00:58:22;5.40;76.60
14585;DHT22;7379;51.506;11.876;2023-02-15T01:00:50;5.30;75.80
14585;DHT22;7379;51.506;11.876;2023-02-15T01:03:19;5.30;75.90
14585;DHT22;7379;51.506;11.876;2023-02-15T01:05:47;5.30;76.00
14585;DHT22;7379;51.506;11.876;2023-02-15T01:08:14;5.30;76.00
14585;DHT22;7379;51.506;11.876;2023-02-15T01:10:42;5.30;76.00
14585;DHT22;7379;51.506;11.876;2023-02-15T01:13:13;5.30;76.00
14585;DHT22;7379;51.506;11.876;2023-02-15T01:15:40;5.30;76.10
14585;DHT22;7379;51.506;11.876;2023-02-15T01:18:06;5.30;76.00
14585;DHT22;7379;51.506;11.876;2023-02-15T01:20:35;5.30;76.00
14585;DHT22;7379;51.506;11.876;2023-02-15T01:23:05;5.30;76.00
14585;DHT22;7379;51.506;11.876;2023-02-15T01:25:33;5.30;76.00
14585;DHT22;7379;51.506;11.876;2023-02-15T01:28:02;5.30;75.90
14585;DHT22;7379;51.506;11.876;2023-02-15T01:30:30;5.20;75.90
14585;DHT22;7379;51.506;11.876;2023-02-15T01:32:57;5.20;75.90
14585;DHT22;7379;51.506;11.876;2023-02-15T01:35:24;5.20;75.90
14585;DHT22;7379;51.506;11.876;2023-02-15T01:37:50;5.20;75.90
14585;DHT22;7379;51.506;11.876;2023-02-15T01:40:18;5.20;76.00
14585;DHT22;7379;51.506;11.876;2023-02-15T01:42:45;5.20;76.70
14585;DHT22;7379;51.506;11.876;2023-02-15T01:45:19;5.20;76.00
14585;DHT22;7379;51.506;11.876;2023-02-15T01:47:51;5.20;76.10
14585;DHT22;7379;51.506;11.876;2023-02-15T01:50:24;5.20;76.10
14585;DHT22;7379;51.506;11.876;2023-02-15T01:52:55;5.20;76.10
14585;DHT22;7379;51.506;11.876;2023-02-15T01:55:26;5.10;76.00
14585;DHT22;7379;51.506;11.876;2023-02-15T01:57:54;5.10;76.10
14585;DHT22;7379;51.506;11.876;2023-02-15T02:00:23;5.10;76.10
14585;DHT22;7379;51.506;11.876;2023-02-15T02:02:52;5.10;76.10
14585;DHT22;7379;51.506;11.876;2023-02-15T02:05:20;5.10;76.10
14585;DHT22;7379;51.506;11.876;2023-02-15T02:07:48;5.10;76.20
14585;DHT22;7379;51.506;11.876;2023-02-15T02:10:17;5.10;76.10
14585;DHT22;7379;51.506;11.876;2023-02-15T02:12:46;5.10;76.10
14585;DHT22;7379;51.506;11.876;2023-02-15T02:15:14;5.10;76.10
14585;DHT22;7379;51.506;11.876;2023-02-15T02:17:50;5.10;76.10
14585;DHT22;7379;51.506;11.876;2023-02-15T02:20:37;5.00;76.00
14585;DHT22;7379;51.506;11.876;2023-02-15T02:23:35;5.10;76.00
14585;DHT22;7379;51.506;11.876;2023-02-15T02:26:32;5.00;75.80
14585;DHT22;7379;51.506;11.876;2023-02-15T02:32:31;5.00;75.70
14585;DHT22;7379;51.506;11.876;2023-02-15T02:35:09;5.00;75.70
14585;DHT22;7379;51.506;11.876;2023-02-15T02:37:45;5.00;76.50
14585;DHT22;7379;51.506;11.876;2023-02-15T02:40:16;5.00;75.70
14585;DHT22;7379;51.506;11.876;2023-02-15T02:42:49;4.90;76.30
14585;DHT22;7379;51.506;11.876;2023-02-15T02:45:23;4.90;75.60
14585;DHT22;7379;51.506;11.876;2023-02-15T02:47:54;4.90;75.60
14585;DHT22;7379;51.506;11.876;2023-02-15T02:50:26;4.90;75.60
14585;DHT22;7379;51.506;11.876;2023-02-15T02:52:55;4.90;75.60
14585;DHT22;7379;51.506;11.876;2023-02-15T02:55:25;4.90;75.60
14585;DHT22;7379;51.506;11.876;2023-02-15T02:57:55;4.90;75.60
14585;DHT22;7379;51.506;11.876;2023-02-15T03:00:25;4.90;75.50
14585;DHT22;7379;51.506;11.876;2023-02-15T03:02:56;4.90;75.50
14585;DHT22;7379;51.506;11.876;2023-02-15T03:05:27;4.90;75.60
14585;DHT22;7379;51.506;11.876;2023-02-15T03:07:56;4.80;75.40
14585;DHT22;7379;51.506;11.876;2023-02-15T03:10:27;4.80;75.40
14585;DHT22;7379;51.506;11.876;2023-02-15T03:12:55;4.80;75.50
14585;DHT22;7379;51.506;11.876;2023-02-15T03:15:29;4.80;75.50
14585;DHT22;7379;51.506;11.876;2023-02-15T03:18:18;4.80;75.50
14585;DHT22;7379;51.506;11.876;2023-02-15T03:20:49;4.80;75.50
14585;DHT22;7379;51.506;11.876;2023-02-15T03:23:20;4.70;75.40
14585;DHT22;7379;51.506;11.876;2023-02-15T03:25:51;4.80;75.50
14585;DHT22;7379;51.506;11.876;2023-02-15T03:28:21;4.70;75.40
14585;DHT22;7379;51.506;11.876;2023-02-15T03:30:53;4.80;75.50
14585;DHT22;7379;51.506;11.876;2023-02-15T03:33:31;4.70;75.40
14585;DHT22;7379;51.506;11.876;2023-02-15T03:36:02;4.70;75.30
14585;DHT22;7379;51.506;11.876;2023-02-15T03:38:36;4.70;75.30
14585;DHT22;7379;51.506;11.876;2023-02-15T03:41:07;4.70;75.30
14585;DHT22;7379;51.506;11.876;2023-02-15T03:43:44;4.70;75.30
14585;DHT22;7379;51.506;11.876;2023-02-15T03:46:17;4.70;75.30
14585;DHT22;7379;51.506;11.876;2023-02-15T03:48:47;4.70;75.30
14585;DHT22;7379;51.506;11.876;2023-02-15T03:51:19;4.60;75.30
14585;DHT22;7379;51.506;11.876;2023-02-15T03:54:02;4.70;76.10
14585;DHT22;7379;51.506;11.876;2023-02-15T03:56:29;4.60;75.30
14585;DHT22;7379;51.506;11.876;2023-02-15T03:58:56;4.60;75.30
14585;DHT22;7379;51.506;11.876;2023-02-15T04:01:46;4.60;75.30
14585;DHT22;7379;51.506;11.876;2023-02-15T04:04:33;4.60;75.40
14585;DHT22;7379;51.506;11.876;2023-02-15T04:07:04;4.60;75.30
14585;DHT22;7379;51.506;11.876;2023-02-15T04:09:31;4.60;75.30
14585;DHT22;7379;51.506;11.876;2023-02-15T04:12:15;4.60;75.40
14585;DHT22;7379;51.506;11.876;2023-02-15T04:14:42;4.60;75.40
14585;DHT22;7379;51.506;11.876;2023-02-15T04:17:27;4.60;75.40
14585;DHT22;7379;51.506;11.876;2023-02-15T04:19:54;4.60;75.40
14585;DHT22;7379;51.506;11.876;2023-02-15T04:22:39;4.50;75.30
14585;DHT22;7379;51.506;11.876;2023-02-15T04:25:24;4.50;75.30
14585;DHT22;7379;51.506;11.876;2023-02-15T04:27:52;4.50;75.30
14585;DHT22;7379;51.506;11.876;2023-02-15T04:30:21;4.50;75.30
14585;DHT22;7379;51.506;11.876;2023-02-15T04:32:48;4.50;76.10
14585;DHT22;7379;51.506;11.876;2023-02-15T04:35:15;4.50;75.40
14585;DHT22;7379;51.506;11.876;2023-02-15T04:37:43;4.50;75.30
14585;DHT22;7379;51.506;11.876;2023-02-15T04:40:13;4.50;75.30
14585;DHT22;7379;51.506;11.876;2023-02-15T04:42:40;4.50;75.30
14585;DHT22;7379;51.506;11.876;2023-02-15T04:45:07;4.50;75.20
14585;DHT22;7379;51.506;11.876;2023-02-15T04:47:34;4.50;75.20
14585;DHT22;7379;51.506;11.876;2023-02-15T04:50:01;4.50;75.10
14585;DHT22;7379;51.506;11.876;2023-02-15T04:52:28;4.40;75.00
14585;DHT22;7379;51.506;11.876;2023-02-15T04:54:56;4.40;74.90
14585;DHT22;7379;51.506;11.876;2023-02-15T04:57:23;4.40;74.90
14585;DHT22;7379;51.506;11.876;2023-02-15T04:59:50;4.40;74.80
14585;DHT22;7379;51.506;11.876;2023-02-15T05:02:16;4.40;74.90
14585;DHT22;7379;51.506;11.876;2023-02-15T05:04:43;4.40;74.80
14585;DHT22;7379;51.506;11.876;2023-02-15T05:07:10;4.40;74.80
14585;DHT22;7379;51.506;11.876;2023-02-15T05:09:37;4.40;74.80
14585;DHT22;7379;51.506;11.876;2023-02-15T05:12:05;4.40;74.90
14585;DHT22;7379;51.506;11.876;2023-02-15T05:14:32;4.40;74.90
14585;DHT22;7379;51.506;11.876;2023-02-15T05:16:59;4.40;74.80
14585;DHT22;7379;51.506;11.876;2023-02-15T05:19:27;4.40;74.80
14585;DHT22;7379;51.506;11.876;2023-02-15T05:21:53;4.30;74.70
14585;DHT22;7379;51.506;11.876;2023-02-15T05:24:20;4.40;74.80
14585;DHT22;7379;51.506;11.876;2023-02-15T05:27:07;4.30;74.80
14585;DHT22;7379;51.506;11.876;2023-02-15T05:29:52;4.30;74.80
14585;DHT22;7379;51.506;11.876;2023-02-15T05:32:18;4.30;74.80
14585;DHT22;7379;51.506;11.876;2023-02-15T05:34:45;4.30;74.80
14585;DHT22;7379;51.506;11.876;2023-02-15T05:37:12;4.30;74.90
14585;DHT22;7379;51.506;11.876;2023-02-15T05:39:39;4.30;74.80
14585;DHT22;7379;51.506;11.876;2023-02-15T05:42:07;4.30;74.80
14585;DHT22;7379;51.506;11.876;2023-02-15T05:44:34;4.30;74.90
14585;DHT22;7379;51.506;11.876;2023-02-15T05:47:01;4.30;74.90
14585;DHT22;7379;51.506;11.876;2023-02-15T05:49:28;4.20;74.80
14585;DHT22;7379;51.506;11.876;2023-02-15T05:51:56;4.30;74.90
14585;DHT22;7379;51.506;11.876;2023-02-15T05:54:22;4.20;74.80
14585;DHT22;7379;51.506;11.876;2023-02-15T05:56:49;4.20;74.80
14585;DHT22;7379;51.506;11.876;2023-02-15T05:59:17;4.20;74.90
14585;DHT22;7379;51.506;11.876;2023-02-15T06:01:44;4.20;75.00
14585;DHT22;7379;51.506;11.876;2023-02-15T06:04:12;4.20;75.00
14585;DHT22;7379;51.506;11.876;2023-02-15T06:06:39;4.20;75.00
14585;DHT22;7379;51.506;11.876;2023-02-15T06:09:05;4.20;75.00
14585;DHT22;7379;51.506;11.876;2023-02-15T06:11:32;4.20;75.00
14585;DHT22;7379;51.506;11.876;2023-02-15T06:13:59;4.20;75.00
14585;DHT22;7379;51.506;11.876;2023-02-15T06:16:27;4.20;75.10
14585;DHT22;7379;51.506;11.876;2023-02-15T06:18:54;4.20;75.10
14585;DHT22;7379;51.506;11.876;2023-02-15T06:21:21;4.20;75.10
14585;DHT22;7379;51.506;11.876;2023-02-15T06:23:47;4.10;75.00
14585;DHT22;7379;51.506;11.876;2023-02-15T06:26:14;4.10;75.00
14585;DHT22;7379;51.506;11.876;2023-02-15T06:28:41;4.10;75.10
14585;DHT22;7379;51.506;11.876;2023-02-15T06:31:08;4.10;75.10
14585;DHT22;7379;51.506;11.876;2023-02-15T06:33:36;4.10;75.20
14585;DHT22;7379;51.506;11.876;2023-02-15T06:36:03;4.10;75.10
14585;DHT22;7379;51.506;11.876;2023-02-15T06:38:30;4.10;75.10
14585;DHT22;7379;51.506;11.876;2023-02-15T06:40:57;4.10;75.20
14585;DHT22;7379;51.506;11.876;2023-02-15T06:43:24;4.10;75.10
14585;DHT22;7379;51.506;11.876;2023-02-15T06:45:51;4.10;75.20
14585;DHT22;7379;51.506;11.876;2023-02-15T06:48:18;4.10;75.20
14585;DHT22;7379;51.506;11.876;2023-02-15T06:50:46;4.10;75.30
14585;DHT22;7379;51.506;11.876;2023-02-15T06:53:12;4.10;75.20
14585;DHT22;7379;51.506;11.876;2023-02-15T06:55:39;4.10;75.30
14585;DHT22;7379;51.506;11.876;2023-02-15T06:58:06;4.00;75.10
14585;DHT22;7379;51.506;11.876;2023-02-15T07:00:33;4.10;75.30
14585;DHT22;7379;51.506;11.876;2023-02-15T07:03:00;4.00;75.10
14585;DHT22;7379;51.506;11.876;2023-02-15T07:05:28;4.00;75.20
14585;DHT22;7379;51.506;11.876;2023-02-15T07:07:57;4.00;75.20
14585;DHT22;7379;51.506;11.876;2023-02-15T07:10:24;4.00;75.20
14585;DHT22;7379;51.506;11.876;2023-02-15T07:12:51;4.00;75.20
14585;DHT22;7379;51.506;11.876;2023-02-15T07:15:18;4.00;75.20
14585;DHT22;7379;51.506;11.876;2023-02-15T07:17:46;4.00;75.20
14585;DHT22;7379;51.506;11.876;2023-02-15T07:20:15;4.00;75.20
14585;DHT22;7379;51.506;11.876;2023-02-15T07:22:42;4.00;75.20
14585;DHT22;7379;51.506;11.876;2023-02-15T07:25:11;4.00;75.20
14585;DHT22;7379;51.506;11.876;2023-02-15T07:27:38;4.00;75.20
14585;DHT22;7379;51.506;11.876;2023-02-15T07:30:07;4.00;75.20
14585;DHT22;7379;51.506;11.876;2023-02-15T07:32:34;4.00;75.20
14585;DHT22;7379;51.506;11.876;2023-02-15T07:35:01;4.00;75.20
14585;DHT22;7379;51.506;11.876;2023-02-15T07:37:28;4.00;75.30
14585;DHT22;7379;51.506;11.876;2023-02-15T07:39:55;4.00;75.20
14585;DHT22;7379;51.506;11.876;2023-02-15T07:42:23;4.00;75.30
14585;DHT22;7379;51.506;11.876;2023-02-15T07:44:50;4.00;75.20
14585;DHT22;7379;51.506;11.876;2023-02-15T07:47:18;4.00;75.20
14585;DHT22;7379;51.506;11.876;2023-02-15T07:49:44;4.00;75.20
14585;DHT22;7379;51.506;11.876;2023-02-15T07:52:11;4.00;75.30
14585;DHT22;7379;51.506;11.876;2023-02-15T07:54:38;3.90;75.20
14585;DHT22;7379;51.506;11.876;2023-02-15T07:57:05;3.90;75.20
14585;DHT22;7379;51.506;11.876;2023-02-15T07:59:33;3.90;75.20
14585;DHT22;7379;51.506;11.876;2023-02-15T08:02:00;3.90;75.20
14585;DHT22;7379;51.506;11.876;2023-02-15T08:04:26;3.90;75.20
14585;DHT22;7379;51.506;11.876;2023-02-15T08:06:53;3.90;75.20
14585;DHT22;7379;51.506;11.876;2023-02-15T08:09:21;3.90;75.30
14585;DHT22;7379;51.506;11.876;2023-02-15T08:11:48;4.00;75.30
14585;DHT22;7379;51.506;11.876;2023-02-15T08:14:16;4.00;75.30
14585;DHT22;7379;51.506;11.876;2023-02-15T08:16:45;4.00;75.30
14585;DHT22;7379;51.506;11.876;2023-02-15T08:19:14;4.00;75.30
14585;DHT22;7379;51.506;11.876;2023-02-15T08:21:42;4.00;75.30
14585;DHT22;7379;51.506;11.876;2023-02-15T08:24:11;4.00;75.30
14585;DHT22;7379;51.506;11.876;2023-02-15T08:26:39;4.00;75.30
14585;DHT22;7379;51.506;11.876;2023-02-15T08:29:07;4.00;75.30
14585;DHT22;7379;51.506;11.876;2023-02-15T08:31:35;4.00;75.30
14585;DHT22;7379;51.506;11.876;2023-02-15T08:34:04;4.00;75.40
14585;DHT22;7379;51.506;11.876;2023-02-15T08:36:31;4.00;75.40
14585;DHT22;7379;51.506;11.876;2023-02-15T08:39:00;4.00;75.40
14585;DHT22;7379;51.506;11.876;2023-02-15T08:41:28;4.00;75.40
14585;DHT22;7379;51.506;11.876;2023-02-15T08:43:57;4.00;75.40
14585;DHT22;7379;51.506;11.876;2023-02-15T08:46:26;4.00;75.40
14585;DHT22;7379;51.506;11.876;2023-02-15T08:48:53;4.00;75.50
14585;DHT22;7379;51.506;11.876;2023-02-15T08:51:22;4.00;75.50
14585;DHT22;7379;51.506;11.876;2023-02-15T08:53:51;4.00;75.60
14585;DHT22;7379;51.506;11.876;2023-02-15T08:56:20;4.00;75.70
14585;DHT22;7379;51.506;11.876;2023-02-15T08:58:47;4.00;75.80
14585;DHT22;7379;51.506;11.876;2023-02-15T09:01:15;4.00;75.80
14585;DHT22;7379;51.506;11.876;2023-02-15T09:03:43;3.90;75.80
14585;DHT22;7379;51.506;11.876;2023-02-15T09:06:11;3.90;75.90
14585;DHT22;7379;51.506;11.876;2023-02-15T09:08:39;3.90;76.00
14585;DHT22;7379;51.506;11.876;2023-02-15T09:11:07;3.90;76.10
14585;DHT22;7379;51.506;11.876;2023-02-15T09:13:34;3.90;76.10
14585;DHT22;7379;51.506;11.876;2023-02-15T09:16:02;3.90;76.10
14585;DHT22;7379;51.506;11.876;2023-02-15T09:18:31;3.90;76.10
14585;DHT22;7379;51.506;11.876;2023-02-15T09:21:04;3.90;76.20
14585;DHT22;7379;51.506;11.876;2023-02-15T09:23:31;3.90;76.30
14585;DHT22;7379;51.506;11.876;2023-02-15T09:26:03;3.90;76.30
14585;DHT22;7379;51.506;11.876;2023-02-15T09:28:30;3.90;76.40
14585;DHT22;7379;51.506;11.876;2023-02-15T09:31:08;3.90;76.40
14585;DHT22;7379;51.506;11.876;2023-02-15T09:33:35;3.90;76.50
14585;DHT22;7379;51.506;11.876;2023-02-15T09:36:03;3.90;76.50
14585;DHT22;7379;51.506;11.876;2023-02-15T09:38:30;3.90;76.50
14585;DHT22;7379;51.506;11.876;2023-02-15T09:41:08;4.00;76.60
14585;DHT22;7379;51.506;11.876;2023-02-15T09:43:43;4.00;76.70
14585;DHT22;7379;51.506;11.876;2023-02-15T09:46:36;4.00;76.70
14585;DHT22;7379;51.506;11.876;2023-02-15T09:49:10;4.00;76.70
14585;DHT22;7379;51.506;11.876;2023-02-15T09:51:59;4.00;76.80
14585;DHT22;7379;51.506;11.876;2023-02-15T09:54:41;4.00;76.80
14585;DHT22;7379;51.506;11.876;2023-02-15T09:57:20;4.00;76.80
14585;DHT22;7379;51.506;11.876;2023-02-15T10:00:00;4.00;76.90
14585;DHT22;7379;51.506;11.876;2023-02-15T10:02:41;4.00;76.90
14585;DHT22;7379;51.506;11.876;2023-02-15T10:05:21;4.00;77.50
14585;DHT22;7379;51.506;11.876;2023-02-15T10:08:15;4.00;77.50
14585;DHT22;7379;51.506;11.876;2023-02-15T10:10:53;4.10;77.60
14585;DHT22;7379;51.506;11.876;2023-02-15T10:13:29;4.10;77.50
14585;DHT22;7379;51.506;11.876;2023-02-15T10:16:09;4.10;77.60
14585;DHT22;7379;51.506;11.876;2023-02-15T10:18:51;4.10;77.70
14585;DHT22;7379;51.506;11.876;2023-02-15T10:21:28;4.10;77.70
14585;DHT22;7379;51.506;11.876;2023-02-15T10:24:26;4.10;77.70
14585;DHT22;7379;51.506;11.876;2023-02-15T10:27:01;4.10;77.70
14585;DHT22;7379;51.506;11.876;2023-02-15T10:29:35;4.10;77.80
14585;DHT22;7379;51.506;11.876;2023-02-15T10:32:16;4.10;77.90
14585;DHT22;7379;51.506;11.876;2023-02-15T10:34:51;4.10;77.90
14585;DHT22;7379;51.506;11.876;2023-02-15T10:37:40;4.20;78.10
14585;DHT22;7379;51.506;11.876;2023-02-15T10:40:14;4.10;78.00
14585;DHT22;7379;51.506;11.876;2023-02-15T10:42:53;4.20;78.20
14585;DHT22;7379;51.506;11.876;2023-02-15T10:45:29;4.20;78.30
14585;DHT22;7379;51.506;11.876;2023-02-15T10:48:21;4.20;78.50
14585;DHT22;7379;51.506;11.876;2023-02-15T10:50:51;4.20;78.50
14585;DHT22;7379;51.506;11.876;2023-02-15T10:53:40;4.20;78.60
14585;DHT22;7379;51.506;11.876;2023-02-15T10:56:17;4.20;78.80
14585;DHT22;7379;51.506;11.876;2023-02-15T10:59:02;4.20;79.00
14585;DHT22;7379;51.506;11.876;2023-02-15T11:01:38;4.30;79.00
14585;DHT22;7379;51.506;11.876;2023-02-15T11:04:36;4.30;79.00
14585;DHT22;7379;51.506;11.876;2023-02-15T11:07:11;4.20;79.00
14585;DHT22;7379;51.506;11.876;2023-02-15T11:09:42;4.30;79.80
14585;DHT22;7379;51.506;11.876;2023-02-15T11:12:14;4.30;79.30
14585;DHT22;7379;51.506;11.876;2023-02-15T11:14:45;4.30;79.20
14585;DHT22;7379;51.506;11.876;2023-02-15T11:17:18;4.30;79.90
14585;DHT22;7379;51.506;11.876;2023-02-15T11:19:54;4.40;79.90
14585;DHT22;7379;51.506;11.876;2023-02-15T11:22:22;4.40;80.20
14585;DHT22;7379;51.506;11.876;2023-02-15T11:24:49;4.50;80.70
14585;DHT22;7379;51.506;11.876;2023-02-15T11:27:19;4.50;81.20
14585;DHT22;7379;51.506;11.876;2023-02-15T11:29:52;4.60;80.60
14585;DHT22;7379;51.506;11.876;2023-02-15T11:32:24;4.60;80.70
14585;DHT22;7379;51.506;11.876;2023-02-15T11:34:55;4.60;80.70
14585;DHT22;7379;51.506;11.876;2023-02-15T11:37:29;4.70;80.60
14585;DHT22;7379;51.506;11.876;2023-02-15T11:39:57;4.70;80.00
14585;DHT22;7379;51.506;11.876;2023-02-15T11:42:27;4.70;80.00
14585;DHT22;7379;51.506;11.876;2023-02-15T11:44:59;4.80;80.60
14585;DHT22;7379;51.506;11.876;2023-02-15T11:47:28;4.80;80.60
14585;DHT22;7379;51.506;11.876;2023-02-15T11:49:56;4.80;80.20
14585;DHT22;7379;51.506;11.876;2023-02-15T11:52:23;4.90;80.70
14585;DHT22;7379;51.506;11.876;2023-02-15T11:54:51;4.90;80.40
14585;DHT22;7379;51.506;11.876;2023-02-15T11:57:23;4.90;80.20
14585;DHT22;7379;51.506;11.876;2023-02-15T11:59:56;5.00;80.80
14585;DHT22;7379;51.506;11.876;2023-02-15T12:02:24;5.10;81.10
14585;DHT22;7379;51.506;11.876;2023-02-15T12:04:56;5.10;80.30
14585;DHT22;7379;51.506;11.876;2023-02-15T12:07:27;5.10;80.70
14585;DHT22;7379;51.506;11.876;2023-02-15T12:10:00;5.20;81.10
14585;DHT22;7379;51.506;11.876;2023-02-15T12:12:30;5.20;80.90
14585;DHT22;7379;51.506;11.876;2023-02-15T12:14:59;5.20;80.20
14585;DHT22;7379;51.506;11.876;2023-02-15T12:17:28;5.30;80.70
14585;DHT22;7379;51.506;11.876;2023-02-15T12:19:58;5.30;80.50
14585;DHT22;7379;51.506;11.876;2023-02-15T12:22:28;5.40;80.80
14585;DHT22;7379;51.506;11.876;2023-02-15T12:24:58;5.40;80.90
14585;DHT22;7379;51.506;11.876;2023-02-15T12:27:27;5.50;81.00
14585;DHT22;7379;51.506;11.876;2023-02-15T12:29:58;5.50;80.70
14585;DHT22;7379;51.506;11.876;2023-02-15T12:32:28;5.50;80.60
14585;DHT22;7379;51.506;11.876;2023-02-15T12:35:02;5.50;80.10
14585;DHT22;7379;51.506;11.876;2023-02-15T12:37:34;5.50;80.40
14585;DHT22;7379;51.506;11.876;2023-02-15T12:40:19;5.60;80.70
14585;DHT22;7379;51.506;11.876;2023-02-15T12:42:46;5.70;80.80
14585;DHT22;7379;51.506;11.876;2023-02-15T12:45:24;5.80;80.90
14585;DHT22;7379;51.506;11.876;2023-02-15T12:48:08;5.80;79.40
14585;DHT22;7379;51.506;11.876;2023-02-15T12:50:36;5.80;79.20
14585;DHT22;7379;51.506;11.876;2023-02-15T12:53:08;5.80;78.70
14585;DHT22;7379;51.506;11.876;2023-02-15T12:55:49;5.80;79.90
14585;DHT22;7379;51.506;11.876;2023-02-15T12:58:18;5.90;80.60
14585;DHT22;7379;51.506;11.876;2023-02-15T13:00:46;5.90;79.40
14585;DHT22;7379;51.506;11.876;2023-02-15T13:03:17;6.00;80.10
14585;DHT22;7379;51.506;11.876;2023-02-15T13:05:47;6.10;79.50
14585;DHT22;7379;51.506;11.876;2023-02-15T13:08:18;6.20;79.80
14585;DHT22;7379;51.506;11.876;2023-02-15T13:10:54;6.20;79.30
14585;DHT22;7379;51.506;11.876;2023-02-15T13:13:24;6.30;79.70
14585;DHT22;7379;51.506;11.876;2023-02-15T13:15:54;6.30;79.00
14585;DHT22;7379;51.506;11.876;2023-02-15T13:18:29;6.40;79.70
14585;DHT22;7379;51.506;11.876;2023-02-15T13:21:00;6.40;77.70
14585;DHT22;7379;51.506;11.876;2023-02-15T13:23:31;6.40;78.80
14585;DHT22;7379;51.506;11.876;2023-02-15T13:25:59;6.50;78.40
14585;DHT22;7379;51.506;11.876;2023-02-15T13:28:37;6.70;78.20
14585;DHT22;7379;51.506;11.876;2023-02-15T13:31:13;6.70;77.90
14585;DHT22;7379;51.506;11.876;2023-02-15T13:33:43;6.80;78.60
14585;DHT22;7379;51.506;11.876;2023-02-15T13:36:19;6.90;77.30
14585;DHT22;7379;51.506;11.876;2023-02-15T13:38:56;6.90;77.70
14585;DHT22;7379;51.506;11.876;2023-02-15T13:41:29;7.10;77.50
14585;DHT22;7379;51.506;11.876;2023-02-15T13:44:05;7.20;77.70
14585;DHT22;7379;51.506;11.876;2023-02-15T13:46:52;7.20;78.40
14585;DHT22;7379;51.506;11.876;2023-02-15T13:49:37;7.20;77.80
14585;DHT22;7379;51.506;11.876;2023-02-15T13:52:17;7.00;76.80
14585;DHT22;7379;51.506;11.876;2023-02-15T13:55:02;7.10;77.80
14585;DHT22;7379;51.506;11.876;2023-02-15T13:57:52;7.00;77.10
14585;DHT22;7379;51.506;11.876;2023-02-15T14:00:27;7.00;77.10
14585;DHT22;7379;51.506;11.876;2023-02-15T14:03:17;7.00;78.30
14585;DHT22;7379;51.506;11.876;2023-02-15T14:06:01;7.00;78.20
14585;DHT22;7379;51.506;11.876;2023-02-15T14:08:48;6.90;78.30
14585;DHT22;7379;51.506;11.876;2023-02-15T14:11:24;7.00;78.40
14585;DHT22;7379;51.506;11.876;2023-02-15T14:14:10;7.10;78.20
14585;DHT22;7379;51.506;11.876;2023-02-15T14:16:45;7.10;78.30
14585;DHT22;7379;51.506;11.876;2023-02-15T14:19:21;7.20;77.80
14585;DHT22;7379;51.506;11.876;2023-02-15T14:21:53;7.20;77.70
14585;DHT22;7379;51.506;11.876;2023-02-15T14:24:32;7.10;77.40
14585;DHT22;7379;51.506;11.876;2023-02-15T14:27:07;7.20;77.70
14585;DHT22;7379;51.506;11.876;2023-02-15T14:29:46;7.20;77.40
14585;DHT22;7379;51.506;11.876;2023-02-15T14:32:18;7.10;77.60
14585;DHT22;7379;51.506;11.876;2023-02-15T14:34:50;7.00;77.60
14585;DHT22;7379;51.506;11.876;2023-02-15T14:37:22;7.00;77.70
14585;DHT22;7379;51.506;11.876;2023-02-15T14:39:56;7.00;78.80
14585;DHT22;7379;51.506;11.876;2023-02-15T14:42:47;7.10;77.90
14585;DHT22;7379;51.506;11.876;2023-02-15T14:45:21;7.10;77.70
14585;DHT22;7379;51.506;11.876;2023-02-15T14:47:56;7.30;77.40
14585;DHT22;7379;51.506;11.876;2023-02-15T14:50:40;7.30;77.50
14585;DHT22;7379;51.506;11.876;2023-02-15T14:53:25;7.30;76.90
14585;DHT22;7379;51.506;11.876;2023-02-15T14:56:23;7.40;76.90
14585;DHT22;7379;51.506;11.876;2023-02-15T14:59:18;7.60;76.60
14585;DHT22;7379;51.506;11.876;2023-02-15T15:01:56;7.60;76.50
14585;DHT22;7379;51.506;11.876;2023-02-15T15:04:27;7.60;76.20
14585;DHT22;7379;51.506;11.876;2023-02-15T15:07:03;7.50;76.20
14585;DHT22;7379;51.506;11.876;2023-02-15T15:09:37;7.40;76.40
14585;DHT22;7379;51.506;11.876;2023-02-15T15:12:36;7.30;76.80
14585;DHT22;7379;51.506;11.876;2023-02-15T15:15:04;7.30;76.90
14585;DHT22;7379;51.506;11.876;2023-02-15T15:17:59;7.20;77.50
14585;DHT22;7379;51.506;11.876;2023-02-15T15:20:45;7.20;77.70
14585;DHT22;7379;51.506;11.876;2023-02-15T15:23:43;7.20;77.60
14585;DHT22;7379;51.506;11.876;2023-02-15T15:26:31;7.10;77.60
14585;DHT22;7379;51.506;11.876;2023-02-15T15:29:03;7.10;77.40
14585;DHT22;7379;51.506;11.876;2023-02-15T15:31:37;7.10;77.40
14585;DHT22;7379;51.506;11.876;2023-02-15T15:34:35;7.10;77.30
14585;DHT22;7379;51.506;11.876;2023-02-15T15:40:47;7.10;77.40
14585;DHT22;7379;51.506;11.876;2023-02-15T15:43:46;7.00;77.70
14585;DHT22;7379;51.506;11.876;2023-02-15T15:46:35;7.00;77.60
14585;DHT22;7379;51.506;11.876;2023-02-15T15:49:09;7.00;77.60
14585;DHT22;7379;51.506;11.876;2023-02-15T15:51:40;7.00;77.70
14585;DHT22;7379;51.506;11.876;2023-02-15T15:54:14;7.00;77.80
14585;DHT22;7379;51.506;11.876;2023-02-15T15:56:44;7.00;77.80
14585;DHT22;7379;51.506;11.876;2023-02-15T15:59:17;7.00;77.70
14585;DHT22;7379;51.506;11.876;2023-02-15T16:01:48;7.00;77.90
14585;DHT22;7379;51.506;11.876;2023-02-15T16:04:23;6.90;77.80
14585;DHT22;7379;51.506;11.876;2023-02-15T16:06:51;6.90;78.30
14585;DHT22;7379;51.506;11.876;2023-02-15T16:09:20;6.90;78.10
14585;DHT22;7379;51.506;11.876;2023-02-15T16:11:49;6.80;78.10
14585;DHT22;7379;51.506;11.876;2023-02-15T16:14:24;6.80;78.30
14585;DHT22;7379;51.506;11.876;2023-02-15T16:16:55;6.80;78.30
14585;DHT22;7379;51.506;11.876;2023-02-15T16:19:26;6.80;78.40
14585;DHT22;7379;51.506;11.876;2023-02-15T16:21:54;6.80;78.30
14585;DHT22;7379;51.506;11.876;2023-02-15T16:24:33;6.80;78.10